Flight Track Log - Related Links

Times and Time Zones

All times are in EDT time to prevent confusion due to time zone crossing. See the DAL268 flight status page for this flight to view local times or setup timezone preferences in your user account.

Time Position Orientation Groundspeed Altitude Reporting Facility
EDT Latitude Longitude Course Direction KTS MPH feet Rate Location/Type
Sun 09:44:48 PM 40.6460 -73.8080 270° West 98 113  Level FlightAware ADS-B
Sun 09:55:10 PM 40.6280 -73.7720 123° Southeast 184 212 500 153 Climbing FlightAware ADS-B
Sun 09:55:54 PM 40.5930 -73.7470 152° Southeast 214 246 1,700 1,500 Climbing FlightAware ADS-B
Sun 09:56:06 PM 40.5810 -73.7400 156° South 232 267 1,900 1,000 Climbing FlightAware ADS-B
Sun 09:56:30 PM 40.5570 -73.7280 159° South 247 284 2,300 1,116 Climbing FlightAware ADS-B
Sun 09:56:49 PM 40.5380 -73.7120 147° Southeast 253 291 2,700 1,111 Climbing FlightAware ADS-B
Sun 09:56:57 PM 40.5320 -73.7030 131° Southeast 256 295 2,800 1,143 Climbing FlightAware ADS-B
Sun 09:57:10 PM 40.5230 -73.6860 125° Southeast 261 300 3,100 1,200 Climbing FlightAware ADS-B
Sun 09:57:22 PM 40.5170 -73.6680 114° Southeast 267 307 3,300 1,135 Climbing FlightAware ADS-B
Sun 09:57:47 PM 40.5060 -73.6290 110° East 283 326 3,800 1,500 Climbing FlightAware ADS-B
Sun 09:58:06 PM 40.4960 -73.5960 112° Southeast 292 336 4,400 2,000 Climbing FlightAware ADS-B
Sun 09:58:26 PM 40.4830 -73.5660 120° Southeast 298 343 5,100 1,902 Climbing FlightAware ADS-B
Sun 09:58:47 PM 40.4670 -73.5360 125° Southeast 302 348 5,700 2,000 Climbing FlightAware ADS-B
Sun 09:59:02 PM 40.4550 -73.5120 123° Southeast 303 349 6,300 2,270 Climbing FlightAware ADS-B
Sun 09:59:24 PM 40.4380 -73.4770 123° Southeast 305 351 7,100 2,294 Climbing FlightAware ADS-B
Sun 09:59:36 PM 40.4280 -73.4570 123° Southeast 306 352 7,600 2,229 Climbing FlightAware ADS-B
Sun 09:59:59 PM 40.4120 -73.4240 122° Southeast 309 356 8,400 2,143 Climbing FlightAware ADS-B
Sun 10:00:18 PM 40.3970 -73.3920 122° Southeast 309 356 9,100 2,000 Climbing FlightAware ADS-B
Sun 10:00:38 PM 40.3820 -73.3610 122° Southeast 312 359 9,700 1,500 Climbing FlightAware ADS-B
Sun 10:01:14 PM 40.3540 -73.3000 121° Southeast 329 379 10,500 1,250 Climbing FlightAware ADS-B
Sun 10:01:50 PM 40.3220 -73.2350 123° Southeast 354 407 11,200 1,083 Climbing FlightAware ADS-B
Sun 10:02:26 PM 40.2850 -73.1710 127° Southeast 379 436 11,800 896 Climbing FlightAware ADS-B
Sun 10:02:57 PM 40.2540 -73.1180 127° Southeast 399 459 12,200 1,105 Climbing FlightAware ADS-B
Sun 10:03:42 PM 40.2040 -73.0330 128° Southeast 419 482 13,200 1,696 Climbing FlightAware ADS-B
Sun 10:04:29 PM 40.1417 -72.9273 128° Southeast 433 498 14,800 1,872 Climbing FlightAware ADS-B (KSNC)
Sun 10:05:31 PM 40.0660 -72.7980 127° Southeast 447 514 16,600 1,791 Climbing FlightAware ADS-B
Sun 10:05:36 PM 40.0581 -72.7858 130° Southeast 448 516 16,800 1,667 Climbing FlightAware ADS-B (KSNC)
Sun 10:06:07 PM 40.0250 -72.7300 128° Southeast 453 521 17,600 1,754 Climbing FlightAware ADS-B
Sun 10:06:41 PM 39.9790 -72.6480 126° Southeast 459 528 18,700 1,745 Climbing FlightAware ADS-B
Sun 10:07:02 PM 39.9610 -72.5970 115° Southeast 462 532 19,200 1,435 Climbing FlightAware ADS-B
Sun 10:07:27 PM 39.9500 -72.5320 102° East 467 537 19,800 1,579 Climbing FlightAware ADS-B
Sun 10:07:59 PM 39.9370 -72.4310 100° East 474 545 20,700 1,519 Climbing FlightAware ADS-B (KSNC)
Sun 10:08:46 PM 39.9220 -72.3090 99° East 478 550 21,800 1,373 Climbing FlightAware ADS-B
Sun 10:09:22 PM 39.9080 -72.2010 100° East 484 557 22,600 1,268 Climbing FlightAware ADS-B
Sun 10:09:57 PM 39.8970 -72.1140 99° East 489 563 23,300 1,275 Climbing FlightAware ADS-B
Sun 10:10:42 PM 39.8950 -72.0960 98° East 489 563 24,300 732 Climbing FlightAware ADS-B
Sun 10:11:19 PM 39.8830 -72.0050 100° East 489 563 24,300  Level FlightAware ADS-B
Sun 10:11:55 PM 39.8730 -71.9160 98° East 489 563 24,300 1,826 Level FlightAware ADS-B
Sun 10:12:28 PM 39.8360 -71.6520 100° East 502 578 26,400 1,750 Climbing FlightAware ADS-B
Sun 10:13:07 PM 39.8240 -71.5530 99° East 502 578 26,400  Level FlightAware ADS-B
Sun 10:13:43 PM 39.8130 -71.4620 99° East 502 578 26,400  Level FlightAware ADS-B
Sun 10:14:20 PM 39.8020 -71.3680 99° East 502 578 26,400  Level FlightAware ADS-B
Sun 10:14:56 PM 39.7900 -71.2770 100° East 502 578 26,400  Level FlightAware ADS-B
Sun 10:15:32 PM 39.7790 -71.1850 99° East 502 578 26,400  Level FlightAware ADS-B
Sun 10:16:08 PM 39.7680 -71.0940 99° East 502 578 26,400 1,258 Level FlightAware ADS-B
Sun 10:17:36 PM 39.7144 -70.7519 99° East 494 568 29,000 1,054 Climbing New York Center
Sun 10:18:36 PM 39.6872 -70.5822 102° East 479 551 29,000  Level New York Center
Sun 10:19:36 PM 39.6619 -70.4069 101° East 491 565 29,000  Level New York Center
Sun 10:20:36 PM 39.6383 -70.2319 100° East 491 565 29,000  Level New York Center
Sun 10:21:36 PM 39.6042 -70.0650 105° East 485 558 29,000  Level New York Center
Sun 10:22:36 PM 39.5886 -69.9061 97° East 485 558 29,000  Level New York Center
Sun 10:23:36 PM 39.5622 -69.7314 101° East 485 558 29,000  Level New York Center
Sun 10:24:36 PM 39.5336 -69.5569 102° East 485 558 29,000  Level New York Center
Sun 10:25:36 PM 39.5069 -69.3878 101° East 484 557 29,000 -50 Level New York Center
Sun 10:26:36 PM 39.4819 -69.2108 100° East 484 557 28,900  Descending New York Center
Sun 10:27:36 PM 39.4544 -69.0367 102° East 484 557 29,000 50 Climbing New York Center
Sun 10:28:36 PM 39.4267 -68.8572 101° East 490 564 29,000  Level New York Center
Sun 10:29:36 PM 39.3969 -68.6833 102° East 495 570 29,000  Level New York Center
Sun 10:30:36 PM 39.3686 -68.5069 102° East 501 577 29,000  Level New York Center
Sun 10:31:36 PM 39.3403 -68.3386 102° East 496 571 29,000  Level New York Center
Sun 10:32:36 PM 39.3139 -68.1678 101° East 489 563 29,000  Level New York Center
Sun 10:33:36 PM 39.2850 -67.9944 102° East 482 555 29,000  Level New York Center
Sun 10:34:36 PM 39.2558 -67.8186 102° East 489 563 29,000  Level New York Center
Sun 10:35:36 PM 39.2267 -67.6508 103° East 484 557 29,000  Level New York Center
Sun 10:36:36 PM 39.1972 -67.4833 103° East 484 557 29,000  Level New York Center
Sun 10:37:36 PM 39.1694 -67.3078 101° East 484 557 29,000  Level New York Center
Sun 10:39:00 PM 39.1250 -67.0498 102° East  Level FlightAware Approximate
Sun 10:40:55 PM 39.1167 -67.0000 78° East 514 592 29,000  Level New York Oceanic (ODAPS)
Sun 10:46:00 PM 39.5115 -65.8354 66° East  Level FlightAware Approximate
Sun 10:47:00 PM 39.3319 -65.5792 79° East 514 592 29,000  Level FlightAware Transoceanic
Sun 10:48:00 PM 39.3576 -65.4010 79° East 514 592 29,000  Level FlightAware Transoceanic
Sun 10:49:00 PM 39.3830 -65.2227 80° East 514 592 29,000  Level FlightAware Transoceanic
Sun 10:49:29 PM 45.4920 -62.7540 80° East 29,000  Level FlightAware ADS-B
Sun 10:52:00 PM 45.6655 -62.2898 62° Northeast  Level Estimated
Sun 10:53:00 PM 45.7339 -62.1045 62° Northeast  Level Estimated
Sun 10:54:00 PM 45.8020 -61.9188 62° Northeast  Level Estimated
Sun 10:55:00 PM 45.8698 -61.7327 62° Northeast  Level Estimated
Sun 10:56:00 PM 45.9373 -61.5461 62° Northeast  Level Estimated
Sun 10:57:00 PM 46.0045 -61.3590 63° Northeast  Level Estimated
Sun 10:58:00 PM 46.0714 -61.1715 63° Northeast  Level Estimated
Sun 10:59:00 PM 46.1380 -60.9836 63° Northeast  Level Estimated
Sun 11:00:00 PM 46.2043 -60.7951 63° Northeast  Level Estimated
Sun 11:00:17 PM 39.6500 -63.2000 81° East 516 594 29,000  Level New York Oceanic (ODAPS)
Sun 11:01:00 PM 46.2702 -60.6063 63° Northeast  Level Estimated
Sun 11:02:00 PM 46.3359 -60.4169 63° Northeast  Level Estimated
Sun 11:03:00 PM 46.4012 -60.2271 63° Northeast  Level Estimated
Sun 11:04:00 PM 46.4663 -60.0369 64° Northeast  Level Estimated
Sun 11:05:00 PM 46.5310 -59.8462 64° Northeast  Level Estimated
Sun 11:06:00 PM 39.7836 -62.0743 82° East 516 594 29,000  Level FlightAware Transoceanic
Sun 11:07:00 PM 39.8048 -61.8863 82° East 516 594 29,000  Level FlightAware Transoceanic
Sun 11:08:00 PM 39.8257 -61.6982 82° East 516 594 29,000  Level FlightAware Transoceanic
Sun 11:09:00 PM 39.8462 -61.5099 82° East 516 594 29,000  Level FlightAware Transoceanic
Sun 11:10:00 PM 39.8665 -61.3216 82° East 516 594 29,000  Level FlightAware Transoceanic
Sun 11:11:00 PM 39.8865 -61.1331 82° East 516 594 29,000  Level FlightAware Transoceanic
Sun 11:12:00 PM 39.9062 -60.9445 82° East 516 594 29,000  Level FlightAware Transoceanic
Sun 11:13:00 PM 39.9256 -60.7558 82° East 516 594 29,000  Level FlightAware Transoceanic
Sun 11:14:00 PM 39.9446 -60.5670 83° East 516 594 29,000  Level FlightAware Transoceanic
Sun 11:15:00 PM 39.9634 -60.3781 83° East 516 594 29,000  Level FlightAware Transoceanic
Sun 11:16:00 PM 39.9818 -60.1891 83° East 516 594 29,000  Level FlightAware Transoceanic
Sun 11:17:00 PM 40.0000 -60.0000 72° East 516 594 29,000  Level FlightAware Transoceanic
Sun 11:17:41 PM 40.0000 -60.0000 72° East 520 598 29,000  Level New York Oceanic (ODAPS)
Sun 11:18:00 PM 40.0447 -59.8206 72° East 516 594 29,000  Level FlightAware Transoceanic
Sun 11:19:00 PM 40.0892 -59.6409 72° East 516 594 29,000  Level FlightAware Transoceanic
Sun 11:20:00 PM 40.1334 -59.4611 72° East 516 594 29,000  Level FlightAware Transoceanic
Sun 11:20:40 PM 40.1500 -59.3833 72° East 511 588 29,000  Level New York Oceanic (ODAPS)
Sun 11:21:00 PM 40.1772 -59.2809 72° East 516 594 29,000  Level FlightAware Transoceanic
Sun 11:22:00 PM 40.2209 -59.1006 72° East 516 594 29,000  Level FlightAware Transoceanic
Sun 11:23:00 PM 40.2642 -58.9200 73° East 520 598 29,000  Level FlightAware Transoceanic
Sun 11:24:00 PM 40.3073 -58.7392 73° East 520 598 29,000  Level FlightAware Transoceanic
Sun 11:25:00 PM 40.3500 -58.5582 73° East 520 598 29,000  Level FlightAware Transoceanic
Sun 11:26:00 PM 40.3925 -58.3769 73° East 520 598 29,000  Level FlightAware Transoceanic
Sun 11:27:00 PM 40.4427 -58.1521 73° East 511 588 29,000  Level FlightAware Transoceanic
Sun 11:28:00 PM 40.4835 -57.9753 73° East 511 588 29,000  Level FlightAware Transoceanic
Sun 11:29:00 PM 40.5240 -57.7983 73° East 511 588 29,000  Level FlightAware Transoceanic
Sun 11:30:00 PM 40.5642 -57.6211 73° East 511 588 29,000  Level FlightAware Transoceanic
Sun 11:31:00 PM 40.6041 -57.4437 74° East 511 588 29,000  Level FlightAware Transoceanic
Sun 11:32:00 PM 40.6438 -57.2661 74° East 511 588 29,000  Level FlightAware Transoceanic
Sun 11:33:00 PM 40.6832 -57.0883 74° East 511 588 29,000  Level FlightAware Transoceanic
Sun 11:34:00 PM 40.7223 -56.9103 74° East 511 588 29,000  Level FlightAware Transoceanic
Sun 11:35:00 PM 40.7612 -56.7320 74° East 511 588 29,000  Level FlightAware Transoceanic
Sun 11:36:00 PM 40.7998 -56.5536 74° East 511 588 29,000  Level FlightAware Transoceanic
Sun 11:37:00 PM 40.8381 -56.3749 74° East 511 588 29,000  Level FlightAware Transoceanic
Sun 11:38:00 PM 40.8761 -56.1960 74° East 511 588 29,000  Level FlightAware Transoceanic
Sun 11:39:00 PM 40.9138 -56.0170 74° East 511 588 29,000  Level FlightAware Transoceanic
Sun 11:40:00 PM 40.9513 -55.8377 75° East 511 588 29,000  Level FlightAware Transoceanic
Sun 11:40:55 PM 41.0000 -55.5833 75° East 512 589 29,000  Level New York Oceanic (ODAPS)
Sun 11:41:00 PM 40.9885 -55.6582 75° East 511 588 29,000  Level FlightAware Transoceanic
Sun 11:42:00 PM 41.0254 -55.4785 75° East 511 588 29,000  Level FlightAware Transoceanic
Sun 11:43:00 PM 41.0620 -55.2987 75° East 511 588 29,000  Level FlightAware Transoceanic
Sun 11:43:00 PM 41.0667 -55.2500 75° East 513 590 29,000  Level New York Oceanic (ODAPS)
Sun 11:44:00 PM 41.0984 -55.1186 75° East 511 588 29,000  Level FlightAware Transoceanic
Sun 11:45:00 PM 41.1345 -54.9383 75° East 511 588 29,000  Level FlightAware Transoceanic
Sun 11:46:00 PM 41.1702 -54.7578 75° East 511 588 29,000  Level FlightAware Transoceanic
Sun 11:47:00 PM 41.2215 -54.4808 75° East 512 589 29,000  Level FlightAware Transoceanic
Sun 11:48:00 PM 41.2574 -54.2963 76° East 512 589 29,000  Level FlightAware Transoceanic
Sun 11:49:00 PM 41.3137 -53.9969 76° East 513 590 29,000  Level FlightAware Transoceanic
Sun 11:50:00 PM 41.3479 -53.8171 76° East 513 590 29,000  Level FlightAware Transoceanic
Sun 11:51:00 PM 41.3818 -53.6371 76° East 513 590 29,000  Level FlightAware Transoceanic
Sun 11:52:00 PM 41.4154 -53.4570 76° East 513 590 29,000  Level FlightAware Transoceanic
Sun 11:53:00 PM 41.4487 -53.2766 76° East 513 590 29,000  Level FlightAware Transoceanic
Sun 11:54:00 PM 41.4818 -53.0961 76° East 513 590 29,000  Level FlightAware Transoceanic
Sun 11:55:00 PM 41.5146 -52.9154 76° East 513 590 29,000  Level FlightAware Transoceanic
Sun 11:56:00 PM 41.5471 -52.7345 77° East 513 590 29,000  Level FlightAware Transoceanic
Sun 11:57:00 PM 41.5793 -52.5534 77° East 513 590 29,000  Level FlightAware Transoceanic
Sun 11:58:00 PM 41.6112 -52.3721 77° East 513 590 29,000  Level FlightAware Transoceanic
Sun 11:59:00 PM 41.6428 -52.1907 77° East 513 590 29,000  Level FlightAware Transoceanic
Mon 12:00:00 AM 41.6742 -52.0091 77° East 513 590 29,000  Level FlightAware Transoceanic
Mon 12:01:00 AM 41.7052 -51.8273 77° East 513 590 29,000  Level FlightAware Transoceanic
Mon 12:02:00 AM 41.7360 -51.6453 77° East 513 590 29,000  Level FlightAware Transoceanic
Mon 12:03:00 AM 41.7665 -51.4632 77° East 513 590 29,000  Level FlightAware Transoceanic
Mon 12:04:00 AM 41.7967 -51.2809 78° East 513 590 29,000  Level FlightAware Transoceanic
Mon 12:05:00 AM 41.8266 -51.0984 78° East 513 590 29,000  Level FlightAware Transoceanic
Mon 12:06:00 AM 41.8562 -50.9157 78° East 513 590 29,000  Level FlightAware Transoceanic
Mon 12:07:00 AM 41.8856 -50.7329 78° East 513 590 29,000  Level FlightAware Transoceanic
Mon 12:08:00 AM 41.9146 -50.5499 78° East 513 590 29,000  Level FlightAware Transoceanic
Mon 12:09:00 AM 41.9434 -50.3668 78° East 513 590 29,000  Level FlightAware Transoceanic
Mon 12:10:00 AM 41.9718 -50.1835 78° East 513 590 29,000  Level FlightAware Transoceanic
Mon 12:11:00 AM 42.0000 -50.0000 79° East 513 590 29,000  Level FlightAware Transoceanic
Mon 12:12:00 AM 42.0268 -49.8147 79° East 513 590 29,000  Level FlightAware Transoceanic
Mon 12:13:00 AM 42.0534 -49.6292 79° East 513 590 29,000  Level FlightAware Transoceanic
Mon 12:14:00 AM 42.0796 -49.4435 79° East 513 590 29,000  Level FlightAware Transoceanic
Mon 12:15:00 AM 42.1055 -49.2577 79° East 513 590 29,000  Level FlightAware Transoceanic
Mon 12:16:00 AM 42.1312 -49.0718 80° East 513 590 29,000  Level FlightAware Transoceanic
Mon 12:17:00 AM 42.1565 -48.8856 80° East 513 590 29,000  Level FlightAware Transoceanic
Mon 12:18:00 AM 42.1815 -48.6994 80° East 513 590 29,000  Level FlightAware Transoceanic
Mon 12:19:00 AM 42.2063 -48.5130 80° East 513 590 29,000  Level FlightAware Transoceanic
Mon 12:20:00 AM 42.2307 -48.3264 80° East 513 590 29,000  Level FlightAware Transoceanic
Mon 12:21:00 AM 42.2548 -48.1398 80° East 513 590 29,000  Level FlightAware Transoceanic
Mon 12:22:00 AM 42.2786 -47.9529 80° East 513 590 29,000  Level FlightAware Transoceanic
Mon 12:23:00 AM 42.3022 -47.7659 80° East 513 590 29,000  Level FlightAware Transoceanic
Mon 12:24:00 AM 42.3254 -47.5788 81° East 513 590 29,000  Level FlightAware Transoceanic
Mon 12:25:00 AM 42.3483 -47.3916 81° East 513 590 29,000  Level FlightAware Transoceanic
Mon 12:26:00 AM 42.3709 -47.2042 81° East 513 590 29,000  Level FlightAware Transoceanic
Mon 12:27:00 AM 42.3932 -47.0167 81° East 513 590 29,000  Level FlightAware Transoceanic
Mon 12:28:00 AM 42.4152 -46.8290 81° East 513 590 29,000  Level FlightAware Transoceanic
Mon 12:29:00 AM 42.4369 -46.6413 81° East 513 590 29,000  Level FlightAware Transoceanic
Mon 12:30:00 AM 42.4583 -46.4534 81° East 513 590 29,000  Level FlightAware Transoceanic
Mon 12:31:00 AM 42.4793 -46.2653 81° East 513 590 29,000  Level FlightAware Transoceanic
Mon 12:32:00 AM 42.5001 -46.0771 82° East 513 590 29,000  Level FlightAware Transoceanic
Mon 12:33:00 AM 42.5206 -45.8889 82° East 513 590 29,000  Level FlightAware Transoceanic
Mon 12:34:00 AM 42.5407 -45.7005 82° East 513 590 29,000  Level FlightAware Transoceanic
Mon 12:35:00 AM 42.5606 -45.5119 82° East 513 590 29,000  Level FlightAware Transoceanic
Mon 12:36:00 AM 42.5801 -45.3233 82° East 513 590 29,000  Level FlightAware Transoceanic
Mon 12:37:00 AM 42.5993 -45.1345 82° East 513 590 29,000  Level FlightAware Transoceanic
Mon 12:38:00 AM 42.6182 -44.9456 82° East 513 590 29,000  Level FlightAware Transoceanic
Mon 12:39:00 AM 42.6368 -44.7566 82° East 513 590 29,000  Level FlightAware Transoceanic
Mon 12:40:00 AM 42.6551 -44.5675 83° East 513 590 29,000  Level FlightAware Transoceanic
Mon 12:41:00 AM 42.6731 -44.3783 83° East 513 590 29,000  Level FlightAware Transoceanic
Mon 12:42:00 AM 42.6908 -44.1890 83° East 513 590 29,000  Level FlightAware Transoceanic
Mon 12:43:00 AM 42.7081 -43.9995 83° East 513 590 29,000  Level FlightAware Transoceanic
Mon 12:44:00 AM 42.7252 -43.8100 83° East 513 590 29,000  Level FlightAware Transoceanic
Mon 12:45:00 AM 42.7419 -43.6204 83° East 513 590 29,000  Level FlightAware Transoceanic
Mon 12:46:00 AM 42.7583 -43.4306 83° East 513 590 29,000  Level FlightAware Transoceanic
Mon 12:47:00 AM 42.7744 -43.2408 83° East 513 590 29,000  Level FlightAware Transoceanic
Mon 12:48:00 AM 42.7902 -43.0508 84° East 513 590 29,000  Level FlightAware Transoceanic
Mon 12:49:00 AM 42.8057 -42.8608 84° East 513 590 29,000  Level FlightAware Transoceanic
Mon 12:50:00 AM 42.8209 -42.6707 84° East 513 590 29,000  Level FlightAware Transoceanic
Mon 12:51:00 AM 42.8357 -42.4804 84° East 513 590 29,000  Level FlightAware Transoceanic
Mon 12:52:00 AM 42.8503 -42.2901 84° East 513 590 29,000  Level FlightAware Transoceanic
Mon 12:53:00 AM 42.8645 -42.0997 84° East 513 590 29,000  Level FlightAware Transoceanic
Mon 12:54:00 AM 42.8784 -41.9092 84° East 513 590 29,000  Level FlightAware Transoceanic
Mon 12:55:00 AM 42.8920 -41.7187 85° East 513 590 29,000  Level FlightAware Transoceanic
Mon 12:56:00 AM 42.9053 -41.5280 85° East 513 590 29,000  Level FlightAware Transoceanic
Mon 12:57:00 AM 42.9182 -41.3373 85° East 513 590 29,000  Level FlightAware Transoceanic
Mon 12:58:00 AM 42.9308 -41.1465 85° East 513 590 29,000  Level FlightAware Transoceanic
Mon 12:59:00 AM 42.9432 -40.9556 85° East 513 590 29,000  Level FlightAware Transoceanic
Mon 01:00:00 AM 42.9552 -40.7646 85° East 513 590 29,000  Level FlightAware Transoceanic
Mon 01:01:00 AM 42.9669 -40.5736 85° East 513 590 29,000  Level FlightAware Transoceanic
Mon 01:02:00 AM 42.9782 -40.3824 85° East 513 590 29,000  Level FlightAware Transoceanic
Mon 01:03:00 AM 42.9893 -40.1912 86° East 513 590 29,000  Level FlightAware Transoceanic
Mon 01:04:00 AM 43.0303 -39.9981 74° East  Level Estimated
Mon 01:05:00 AM 43.0709 -39.8047 74° East  Level Estimated
Mon 01:06:00 AM 43.1112 -39.6111 74° East  Level Estimated
Mon 01:07:00 AM 43.1512 -39.4172 74° East  Level Estimated
Mon 01:08:00 AM 43.1909 -39.2230 74° East  Level Estimated
Mon 01:09:00 AM 43.2302 -39.0286 74° East  Level Estimated
Mon 01:10:00 AM 43.2692 -38.8340 75° East  Level Estimated
Mon 01:11:00 AM 43.3079 -38.6391 75° East  Level Estimated
Mon 01:12:00 AM 43.3463 -38.4439 75° East  Level Estimated
Mon 01:12:00 AM 43.0000 -40.0000 87° East 515 593 29,000  Level ETMS Enhanced Traffic Management System
Mon 01:13:00 AM 43.3843 -38.2486 75° East  Level Estimated
Mon 01:14:00 AM 43.4220 -38.0529 75° East  Level Estimated
Mon 01:15:00 AM 43.4593 -37.8570 75° East  Level Estimated
Mon 01:16:00 AM 43.4963 -37.6609 75° East  Level Estimated
Mon 01:17:00 AM 43.5330 -37.4646 75° East  Level Estimated
Mon 01:18:00 AM 43.2393 -38.8366 74° East  Level Estimated
Mon 01:19:00 AM 43.2780 -38.6418 75° East  Level Estimated
Mon 01:20:00 AM 43.3164 -38.4467 75° East  Level Estimated
Mon 01:21:00 AM 43.3545 -38.2514 75° East  Level Estimated
Mon 01:22:00 AM 43.3922 -38.0559 75° East  Level Estimated
Mon 01:23:00 AM 43.4296 -37.8602 75° East  Level Estimated
Mon 01:24:00 AM 43.4667 -37.6642 75° East  Level Estimated
Mon 01:25:00 AM 43.5034 -37.4679 75° East  Level Estimated
Mon 01:26:00 AM 43.5398 -37.2714 76° East  Level Estimated
Mon 01:27:00 AM 43.5759 -37.0747 76° East  Level Estimated
Mon 01:28:00 AM 43.6116 -36.8777 76° East  Level Estimated
Mon 01:29:00 AM 43.6470 -36.6805 76° East  Level Estimated
Mon 01:30:00 AM 43.6820 -36.4831 76° East  Level Estimated
Mon 01:31:00 AM 43.7167 -36.2855 76° East  Level Estimated
Mon 01:32:00 AM 43.7511 -36.0876 76° East  Level Estimated
Mon 01:33:00 AM 43.7851 -35.8895 77° East  Level Estimated
Mon 01:34:00 AM 43.8188 -35.6912 77° East  Level Estimated
Mon 01:35:00 AM 43.8521 -35.4926 77° East  Level Estimated
Mon 01:36:00 AM 43.8851 -35.2938 77° East  Level Estimated
Mon 01:37:00 AM 43.9177 -35.0949 77° East  Level Estimated
Mon 01:38:00 AM 43.9500 -34.8956 77° East  Level Estimated
Mon 01:39:00 AM 43.9820 -34.6962 77° East  Level Estimated
Mon 01:40:00 AM 44.0136 -34.4966 78° East  Level Estimated
Mon 01:41:00 AM 44.0449 -34.2967 78° East  Level Estimated
Mon 01:42:00 AM 44.0758 -34.0967 78° East  Level Estimated
Mon 01:43:00 AM 44.1063 -33.8964 78° East  Level Estimated
Mon 01:44:00 AM 44.1365 -33.6959 78° East  Level Estimated
Mon 01:45:00 AM 44.1664 -33.4953 78° East  Level Estimated
Mon 01:46:00 AM 44.1959 -33.2944 78° East  Level Estimated
Mon 01:47:00 AM 44.2251 -33.0933 78° East  Level Estimated
Mon 01:48:00 AM 44.2539 -32.8920 79° East  Level Estimated
Mon 01:49:00 AM 44.2823 -32.6906 79° East  Level Estimated
Mon 01:50:00 AM 44.3104 -32.4889 79° East  Level Estimated
Mon 01:51:00 AM 44.3381 -32.2870 79° East  Level Estimated
Mon 01:52:00 AM 44.3655 -32.0850 79° East  Level Estimated
Mon 01:53:00 AM 44.3926 -31.8827 79° East  Level Estimated
Mon 01:54:00 AM 44.4192 -31.6803 79° East  Level Estimated
Mon 01:55:00 AM 44.4455 -31.4777 80° East  Level Estimated
Mon 01:56:00 AM 44.4715 -31.2749 80° East  Level Estimated
Mon 01:57:00 AM 44.4971 -31.0719 80° East  Level Estimated
Mon 01:58:00 AM 44.5223 -30.8688 80° East  Level Estimated
Mon 01:59:00 AM 44.5472 -30.6655 80° East  Level Estimated
Mon 02:00:00 AM 44.5717 -30.4620 80° East  Level Estimated
Mon 02:01:00 AM 44.5958 -30.2583 80° East  Level Estimated
Mon 02:02:00 AM 44.6196 -30.0545 81° East  Level Estimated
Mon 02:03:00 AM 44.6431 -29.8505 81° East  Level Estimated
Mon 02:04:00 AM 44.6661 -29.6464 81° East  Level Estimated
Mon 02:05:00 AM 44.6888 -29.4420 81° East  Level Estimated
Mon 02:06:00 AM 44.7111 -29.2376 81° East  Level Estimated
Mon 02:07:00 AM 44.7331 -29.0329 81° East  Level Estimated
Mon 02:08:00 AM 44.7547 -28.8281 81° East  Level Estimated
Mon 02:09:00 AM 44.7760 -28.6232 82° East  Level Estimated
Mon 02:10:00 AM 44.7968 -28.4181 82° East  Level Estimated
Mon 02:11:00 AM 44.8173 -28.2129 82° East  Level Estimated
Mon 02:12:00 AM 44.8374 -28.0075 82° East  Level Estimated
Mon 02:13:00 AM 44.8572 -27.8020 82° East  Level Estimated
Mon 02:14:00 AM 44.8766 -27.5963 82° East  Level Estimated
Mon 02:15:00 AM 44.8956 -27.3905 82° East  Level Estimated
Mon 02:16:00 AM 44.9143 -27.1846 83° East  Level Estimated
Mon 02:17:00 AM 44.9326 -26.9785 83° East  Level Estimated
Mon 02:18:00 AM 44.9505 -26.7723 83° East  Level Estimated
Mon 02:19:00 AM 44.9681 -26.5660 83° East  Level Estimated
Mon 02:20:00 AM 44.9852 -26.3595 83° East  Level Estimated
Mon 02:21:00 AM 45.0020 -26.1529 83° East  Level Estimated
Mon 02:22:00 AM 45.0185 -25.9463 84° East  Level Estimated
Mon 02:23:00 AM 45.0345 -25.7394 84° East  Level Estimated
Mon 02:24:00 AM 45.0502 -25.5325 84° East  Level Estimated
Mon 02:25:00 AM 45.0655 -25.3255 84° East  Level Estimated
Mon 02:26:00 AM 45.0804 -25.1183 84° East  Level Estimated
Mon 02:27:00 AM 45.0950 -24.9111 84° East  Level Estimated
Mon 02:28:00 AM 45.1092 -24.7037 84° East  Level Estimated
Mon 02:29:00 AM 45.1230 -24.4963 85° East  Level Estimated
Mon 02:30:00 AM 45.1364 -24.2887 85° East  Level Estimated
Mon 02:31:00 AM 45.1495 -24.0810 85° East  Level Estimated
Mon 02:32:00 AM 45.1622 -23.8733 85° East  Level Estimated
Mon 02:33:00 AM 45.1745 -23.6654 85° East  Level Estimated
Mon 02:34:00 AM 45.1864 -23.4575 85° East  Level Estimated
Mon 02:35:00 AM 45.1980 -23.2495 85° East  Level Estimated
Mon 02:36:00 AM 45.2091 -23.0414 86° East  Level Estimated
Mon 02:37:00 AM 45.2199 -22.8332 86° East  Level Estimated
Mon 02:38:00 AM 45.2303 -22.6250 86° East  Level Estimated
Mon 02:39:00 AM 45.2404 -22.4166 86° East  Level Estimated
Mon 02:40:00 AM 45.2500 -22.2082 86° East  Level Estimated
Mon 02:41:00 AM 45.2593 -21.9998 86° East  Level Estimated
Mon 02:42:00 AM 45.2682 -21.7916 86° East  Level Estimated
Mon 02:43:00 AM 45.2767 -21.5833 87° East  Level Estimated
Mon 02:44:00 AM 45.2849 -21.3750 87° East  Level Estimated
Mon 02:45:00 AM 45.2926 -21.1667 87° East  Level Estimated
Mon 02:46:00 AM 45.3000 -20.9583 87° East  Level Estimated
Mon 02:47:00 AM 45.3070 -20.7498 87° East  Level Estimated
Mon 02:48:00 AM 45.3136 -20.5413 87° East  Level Estimated
Mon 02:49:00 AM 45.3198 -20.3327 87° East  Level Estimated
Mon 02:50:00 AM 45.3256 -20.1241 88° East  Level Estimated
Mon 02:51:00 AM 45.3311 -19.9154 88° East  Level Estimated
Mon 02:52:00 AM 45.3362 -19.7068 88° East  Level Estimated
Mon 02:53:00 AM 45.3409 -19.4980 88° East  Level Estimated
Mon 02:54:00 AM 45.3452 -19.2893 88° East  Level Estimated
Mon 02:55:00 AM 45.3492 -19.0805 88° East  Level Estimated
Mon 02:56:00 AM 45.3528 -18.8717 89° East  Level Estimated
Mon 02:57:00 AM 45.3560 -18.6628 89° East  Level Estimated
Mon 02:58:00 AM 45.3588 -18.4539 89° East  Level Estimated
Mon 02:59:00 AM 45.3612 -18.2450 89° East  Level Estimated
Mon 03:00:00 AM 45.3633 -18.0361 89° East  Level Estimated
Mon 03:01:00 AM 45.3649 -17.8272 89° East  Level Estimated
Mon 03:02:00 AM 45.3662 -17.6183 89° East  Level Estimated
Mon 03:03:00 AM 45.3671 -17.4093 90° East  Level Estimated
Mon 03:04:00 AM 45.3676 -17.2004 90° East  Level Estimated
Mon 03:05:00 AM 45.3678 -16.9915 90° East  Level Estimated
Mon 03:06:00 AM 45.3675 -16.7825 90° East  Level Estimated
Mon 03:07:00 AM 45.3669 -16.5736 90° East  Level Estimated
Mon 03:08:00 AM 45.3659 -16.3646 90° East  Level Estimated
Mon 03:09:00 AM 45.3646 -16.1557 90° East  Level Estimated
Mon 03:10:00 AM 45.3628 -15.9468 91° East  Level Estimated
Mon 03:11:00 AM 45.3606 -15.7379 91° East  Level Estimated
Mon 03:12:00 AM 45.3581 -15.5290 91° East  Level Estimated
Mon 03:13:00 AM 45.3552 -15.3202 91° East  Level Estimated
Mon 03:14:00 AM 45.3520 -15.1113 91° East  Level Estimated
Mon 03:15:00 AM 45.3483 -14.9025 91° East  Level Estimated
Mon 03:16:00 AM 45.3442 -14.6937 92° East  Level Estimated
Mon 03:16:08 AM 43.3740 -11.8460 92° East 614 707 34,800  Level FlightAware ADS-B
Mon 03:16:43 AM 43.3580 -11.7150 99° East 614 707 35,500 960 Climbing FlightAware ADS-B
Mon 03:17:23 AM 43.3385 -11.5424 99° East 615 708 36,000 341 Climbing FlightAware ADS-B (LECO / LCG)
Mon 03:18:11 AM 43.3200 -11.3850 99° East 613 705 36,000  Level FlightAware ADS-B
Mon 03:18:51 AM 43.3160 -11.3530 100° East 613 705 36,000  Level FlightAware ADS-B
Mon 03:19:02 AM 43.2924 -11.1581 99° East 615 708 36,000  Level FlightAware ADS-B (LECO / LCG)
Mon 03:19:33 AM 43.2779 -11.0388 99° East 617 710 36,000  Level FlightAware ADS-B (LECO / LCG)
Mon 03:20:03 AM 43.2642 -10.9271 100° East 617 710 36,000  Level FlightAware ADS-B (LECO / LCG)
Mon 03:20:43 AM 43.2460 -10.7770 99° East 617 710 36,000  Level FlightAware ADS-B
Mon 03:21:02 AM 43.2356 -10.6960 100° East 619 712 36,000  Level FlightAware ADS-B (LECO / LCG)
Mon 03:21:43 AM 43.2157 -10.5413 100° East 620 713 36,000  Level FlightAware ADS-B (LECO / LCG)
Mon 03:22:23 AM 43.1963 -10.3870 100° East 621 715 36,000  Level FlightAware ADS-B (LECO / LCG)
Mon 03:22:53 AM 43.1810 -10.2667 100° East 622 716 36,000  Level FlightAware ADS-B (LECO / LCG)
Mon 03:23:38 AM 43.1590 -10.0960 100° East 621 715 36,000  Level FlightAware ADS-B
Mon 03:23:54 AM 43.1502 -10.0308 100° East 622 716 36,000  Level FlightAware ADS-B (LECO / LCG)
Mon 03:24:34 AM 43.1303 -9.8801 100° East 622 716 36,000  Level FlightAware ADS-B (LECO / LCG)
Mon 03:25:23 AM 43.1060 -9.6950 100° East 622 716 36,000  Level FlightAware ADS-B
Mon 03:25:43 AM 43.0940 -9.6098 101° East 621 715 36,000  Level FlightAware ADS-B (LECO / LCG)
Mon 03:26:34 AM 43.0672 -9.4133 101° East 622 716 36,000  Level FlightAware ADS-B (LECO / LCG)
Mon 03:27:08 AM 43.0500 -9.2860 100° East 620 713 36,000  Level FlightAware ADS-B
Mon 03:27:29 AM 43.0383 -9.2057 101° East 620 713 36,000  Level FlightAware ADS-B (LECO / LCG)
Mon 03:28:09 AM 43.0162 -9.0480 101° East 619 712 36,000  Level FlightAware ADS-B (LECO / LCG)
Mon 03:28:39 AM 43.0002 -8.9369 101° East 618 711 36,000  Level FlightAware ADS-B (LECO / LCG)
Mon 03:29:10 AM 42.9830 -8.8144 101° East 619 712 36,000  Level FlightAware ADS-B (LECO / LCG)
Mon 03:29:51 AM 42.9607 -8.6579 101° East 618 711 36,000  Level FlightAware ADS-B (LECO / LCG)
Mon 03:30:32 AM 42.9387 -8.5051 101° East 618 711 36,000  Level FlightAware ADS-B (LECO / LCG)
Mon 03:31:22 AM 42.9172 -8.3082 98° East 622 716 36,000  Level FlightAware ADS-B (LECO / LCG)
Mon 03:32:10 AM 42.9061 -8.1248 95° East 622 716 36,000  Level FlightAware ADS-B (LECO / LCG)
Mon 03:32:43 AM 42.8994 -7.9921 94° East 623 717 36,000  Level FlightAware ADS-B (LECO / LCG)
Mon 03:33:22 AM 42.8910 -7.8435 94° East 623 717 36,000  Level FlightAware ADS-B (LECO / LCG)
Mon 03:33:53 AM 42.8831 -7.7187 95° East 622 716 36,000  Level FlightAware ADS-B (LECO / LCG)
Mon 03:34:42 AM 42.8700 -7.5277 95° East 622 716 36,000  Level FlightAware ADS-B (LECO / LCG)
Mon 03:35:13 AM 42.8616 -7.4109 96° East 622 716 36,000  Level FlightAware ADS-B (LECO / LCG)
Mon 03:36:03 AM 42.8473 -7.2122 96° East 623 717 36,000  Level FlightAware ADS-B (LECO / LCG)
Mon 03:36:34 AM 42.8386 -7.0953 96° East 622 716 36,000  Level FlightAware ADS-B (LECO / LCG)
Mon 03:37:04 AM 42.8298 -6.9788 96° East 622 716 36,000  Level FlightAware ADS-B (LECO / LCG)
Mon 03:37:34 AM 42.8210 -6.8580 96° East 622 716 36,000  Level FlightAware ADS-B (LECO / LCG)
Mon 03:38:04 AM 42.8122 -6.7416 96° East 622 716 36,000  Level FlightAware ADS-B (LECO / LCG)
Mon 03:38:52 AM 42.7978 -6.5547 96° East 622 716 36,000  Level FlightAware ADS-B (LECO / LCG)
Mon 03:39:31 AM 42.7870 -6.4110 96° East 620 713 36,000  Level FlightAware ADS-B
Mon 03:40:01 AM 42.7790 -6.3110 96° East 619 712 36,000  Level FlightAware ADS-B
Mon 03:40:41 AM 42.7650 -6.1410 96° East 620 713 36,000  Level FlightAware ADS-B
Mon 03:41:11 AM 42.7560 -6.0240 96° East 620 713 36,000  Level FlightAware ADS-B
Mon 03:41:46 AM 42.7440 -5.8850 97° East 620 713 36,000  Level FlightAware ADS-B
Mon 03:42:26 AM 42.7320 -5.7310 96° East 619 712 36,000  Level FlightAware ADS-B
Mon 03:43:01 AM 42.7210 -5.6030 97° East 618 711 36,000  Level FlightAware ADS-B
Mon 03:43:36 AM 42.7090 -5.4650 97° East 618 711 36,000  Level FlightAware ADS-B
Mon 03:44:16 AM 42.6950 -5.3190 97° East 617 710 36,000  Level FlightAware ADS-B
Mon 03:44:51 AM 42.6830 -5.1730 96° East 615 708 36,000  Level FlightAware ADS-B
Mon 03:45:31 AM 42.6700 -5.0350 97° East 614 707 36,000  Level FlightAware ADS-B
Mon 03:46:07 AM 42.6560 -4.8820 97° East 614 707 36,000  Level FlightAware ADS-B
Mon 03:46:42 AM 42.6440 -4.7490 97° East 613 705 36,000  Level FlightAware ADS-B
Mon 03:47:22 AM 42.6300 -4.6000 97° East 614 707 36,000  Level FlightAware ADS-B
Mon 03:47:52 AM 42.6180 -4.4820 98° East 613 705 36,000  Level FlightAware ADS-B
Mon 03:48:27 AM 42.6060 -4.3520 97° East 614 707 36,000  Level FlightAware ADS-B
Mon 03:49:02 AM 42.5930 -4.2190 98° East 613 705 36,000  Level FlightAware ADS-B
Mon 03:49:37 AM 42.5800 -4.0850 97° East 613 705 36,000  Level FlightAware ADS-B
Mon 03:50:13 AM 42.5670 -3.9520 98° East 613 705 36,000  Level FlightAware ADS-B
Mon 03:50:52 AM 42.5520 -3.8080 98° East 613 705 36,000  Level FlightAware ADS-B
Mon 03:51:22 AM 42.5390 -3.6820 98° East 614 707 36,000  Level FlightAware ADS-B
Mon 03:52:02 AM 42.5230 -3.5290 98° East 614 707 36,000  Level FlightAware ADS-B
Mon 03:52:32 AM 42.5110 -3.4190 98° East 614 707 36,000  Level FlightAware ADS-B
Mon 03:53:07 AM 42.4970 -3.2820 98° East 614 707 36,000  Level FlightAware ADS-B
Mon 03:53:42 AM 42.4830 -3.1490 98° East 613 705 36,000  Level FlightAware ADS-B
Mon 03:54:17 AM 42.4700 -3.0320 99° East 613 705 36,000  Level FlightAware ADS-B
Mon 03:54:52 AM 42.4510 -2.8880 100° East 614 707 36,000  Level FlightAware ADS-B
Mon 03:55:32 AM 42.4240 -2.7400 104° East 612 704 36,000  Level FlightAware ADS-B
Mon 03:56:03 AM 42.4000 -2.6250 106° East 610 702 36,000  Level FlightAware ADS-B
Mon 03:56:41 AM 42.3730 -2.4930 105° East 612 704 36,000  Level FlightAware ADS-B
Mon 03:57:11 AM 42.3490 -2.3790 106° East 612 704 36,000  Level FlightAware ADS-B
Mon 03:57:46 AM 42.3210 -2.2470 106° East 611 703 36,000  Level FlightAware ADS-B
Mon 03:58:26 AM 42.2900 -2.0960 105° East 613 705 36,000  Level FlightAware ADS-B
Mon 03:59:01 AM 42.2630 -1.9670 106° East 613 705 36,000  Level FlightAware ADS-B
Mon 03:59:33 AM 42.2380 -1.8530 106° East 614 707 36,000  Level FlightAware ADS-B
Mon 04:00:08 AM 42.2100 -1.7210 106° East 615 708 36,000  Level FlightAware ADS-B
Mon 04:00:47 AM 42.1780 -1.5770 107° East 615 708 36,000  Level FlightAware ADS-B
Mon 04:01:18 AM 42.1540 -1.4630 106° East 615 708 36,000  Level FlightAware ADS-B
Mon 04:01:55 AM 42.1240 -1.3270 107° East 616 709 36,000  Level FlightAware ADS-B
Mon 04:02:29 AM 42.0960 -1.2030 107° East 616 709 36,000  Level FlightAware ADS-B
Mon 04:03:06 AM 42.0660 -1.0670 107° East 615 708 36,000  Level FlightAware ADS-B
Mon 04:03:36 AM 42.0420 -0.9570 106° East 615 708 36,000  Level FlightAware ADS-B
Mon 04:04:14 AM 42.0120 -0.8250 107° East 616 709 36,000  Level FlightAware ADS-B
Mon 04:04:50 AM 41.9810 -0.6860 107° East 616 709 36,000  Level FlightAware ADS-B
Mon 04:05:26 AM 41.9500 -0.5510 107° East 614 707 36,000  Level FlightAware ADS-B
Mon 04:06:01 AM 41.9210 -0.4230 107° East 613 705 36,000  Level FlightAware ADS-B
Mon 04:06:34 AM 41.8940 -0.3070 107° East 613 705 36,000  Level FlightAware ADS-B
Mon 04:07:09 AM 41.8690 -0.1780 105° East 614 707 36,000  Level FlightAware ADS-B
Mon 04:07:41 AM 41.8470 -0.0600 104° East 611 703 36,000  Level FlightAware ADS-B
Mon 04:08:22 AM 41.8170 0.0940 105° East 611 703 36,000  Level FlightAware ADS-B
Mon 04:08:55 AM 41.7940 0.2100 105° East 612 704 36,000  Level FlightAware ADS-B
Mon 04:09:32 AM 41.7660 0.3460 105° East 611 703 36,000  Level FlightAware ADS-B
Mon 04:10:04 AM 41.7420 0.4620 105° East 611 703 36,000  Level FlightAware ADS-B
Mon 04:10:38 AM 41.7160 0.5900 105° East 611 703 36,000  Level FlightAware ADS-B
Mon 04:11:23 AM 41.6890 0.7170 106° East 611 703 36,000  Level FlightAware ADS-B
Mon 04:11:59 AM 41.6550 0.8840 105° East 609 701 36,000  Level FlightAware ADS-B
Mon 04:12:29 AM 41.6330 0.9850 106° East 607 699 36,000  Level FlightAware ADS-B
Mon 04:13:13 AM 41.5980 1.1470 106° East 607 699 36,000  Level FlightAware ADS-B
Mon 04:13:48 AM 41.5730 1.2700 105° East 608 700 36,000  Level FlightAware ADS-B
Mon 04:14:27 AM 41.5420 1.4140 106° East 607 699 36,000  Level FlightAware ADS-B
Mon 04:14:57 AM 41.5180 1.5210 107° East 606 697 36,000  Level FlightAware ADS-B
Mon 04:15:36 AM 41.4880 1.6650 105° East 608 700 36,000  Level FlightAware ADS-B
Mon 04:16:08 AM 41.4630 1.7800 106° East 607 699 36,000  Level FlightAware ADS-B
Mon 04:16:43 AM 41.4360 1.9020 106° East 606 697 36,000  Level FlightAware ADS-B
Mon 04:17:20 AM 41.4060 2.0380 106° East 606 697 36,000  Level FlightAware ADS-B
Mon 04:17:55 AM 41.3790 2.1590 107° East 605 696 36,000  Level FlightAware ADS-B
Mon 04:18:32 AM 41.3500 2.2910 106° East 605 696 36,000  Level FlightAware ADS-B
Mon 04:19:02 AM 41.3250 2.3990 107° East 606 697 36,000  Level FlightAware ADS-B
Mon 04:19:40 AM 41.2960 2.5340 106° East 606 697 36,000  Level FlightAware ADS-B
Mon 04:20:15 AM 41.2670 2.6620 107° East 605 696 36,000  Level FlightAware ADS-B
Mon 04:20:51 AM 41.2370 2.7900 107° East 604 695 36,000  Level FlightAware ADS-B
Mon 04:21:24 AM 41.2110 2.9040 107° East 604 695 36,000  Level FlightAware ADS-B
Mon 04:21:59 AM 41.1830 3.0280 107° East 604 695 36,000  Level FlightAware ADS-B
Mon 04:22:36 AM 41.1520 3.1590 107° East 603 694 36,000  Level FlightAware ADS-B
Mon 04:23:10 AM 41.1240 3.2790 107° East 603 694 36,000  Level FlightAware ADS-B
Mon 04:23:45 AM 41.0960 3.4020 107° East 602 693 36,000  Level FlightAware ADS-B
Mon 04:24:20 AM 41.0680 3.5220 107° East 602 693 36,000  Level FlightAware ADS-B
Mon 04:24:52 AM 41.0450 3.6360 105° East 601 692 36,000  Level FlightAware ADS-B
Mon 04:25:27 AM 41.0230 3.7610 103° East 598 688 36,000  Level FlightAware ADS-B
Mon 04:26:12 AM 40.9960 3.9150 103° East 598 688 36,000  Level FlightAware ADS-B
Mon 04:26:42 AM 40.9760 4.0210 104° East 597 687 36,000  Level FlightAware ADS-B
Mon 04:27:27 AM 40.9480 4.1780 103° East 598 688 36,000  Level FlightAware ADS-B
Mon 04:28:02 AM 40.9230 4.3130 104° East 598 688 36,000  Level FlightAware ADS-B
Mon 04:28:37 AM 40.8990 4.4410 104° East 599 689 36,000  Level FlightAware ADS-B
Mon 04:29:07 AM 40.8800 4.5410 104° East 599 689 36,000  Level FlightAware ADS-B
Mon 04:29:57 AM 40.8510 4.7190 102° East 596 686 36,000  Level FlightAware ADS-B
Mon 04:30:35 AM 40.8340 4.8340 101° East 596 686 36,000  Level FlightAware ADS-B
Mon 04:31:13 AM 40.8250 4.9740 95° East 593 682 36,000  Level FlightAware ADS-B
Mon 04:31:56 AM 40.8140 5.0970 97° East 593 682 36,000  Level FlightAware ADS-B
Mon 04:32:37 AM 40.7970 5.2680 97° East 557 641 36,000  Level FlightAware ADS-B
Mon 04:33:10 AM 40.7860 5.3830 97° East 594 684 36,000  Level FlightAware ADS-B
Mon 04:34:05 AM 40.7680 5.5840 97° East 593 682 36,000  Level FlightAware ADS-B
Mon 04:34:43 AM 40.7550 5.7110 98° East 594 684 36,000  Level FlightAware ADS-B
Mon 04:35:15 AM 40.7390 5.8640 98° East 512 589 36,000  Level FlightAware ADS-B
Mon 04:35:55 AM 40.7240 6.0110 98° East 595 685 36,000  Level FlightAware ADS-B
Mon 04:36:30 AM 40.7120 6.1330 97° East 594 684 36,000  Level FlightAware ADS-B
Mon 04:37:00 AM 40.7010 6.2410 98° East 594 684 36,000  Level FlightAware ADS-B
Mon 04:37:35 AM 40.6870 6.3660 98° East 592 681 36,000  Level FlightAware ADS-B
Mon 04:38:15 AM 40.6720 6.5080 98° East 591 680 36,000  Level FlightAware ADS-B
Mon 04:38:50 AM 40.6590 6.6330 98° East 591 680 36,000  Level FlightAware ADS-B
Mon 04:39:20 AM 40.6470 6.7400 98° East 591 680 36,000  Level FlightAware ADS-B
Mon 04:40:01 AM 40.6310 6.8860 98° East 592 681 36,000  Level FlightAware ADS-B
Mon 04:40:31 AM 40.6190 6.9960 98° East 593 682 36,000  Level FlightAware ADS-B
Mon 04:41:10 AM 40.6030 7.1350 99° East 592 681 36,000  Level FlightAware ADS-B
Mon 04:41:46 AM 40.5890 7.2630 98° East 589 678 36,000  Level FlightAware ADS-B
Mon 04:42:16 AM 40.5770 7.3660 99° East 587 676 36,000  Level FlightAware ADS-B
Mon 04:42:51 AM 40.5690 7.4890 95° East 576 663 36,000  Level FlightAware ADS-B
Mon 04:43:31 AM 40.5760 7.6260 86° East 563 648 36,000 171 Level FlightAware ADS-B
Mon 04:44:01 AM 40.5850 7.7320 84° East 562 647 36,200 727 Climbing FlightAware ADS-B
Mon 04:44:37 AM 40.5810 7.8560 92° East 577 664 36,800 676 Climbing FlightAware ADS-B
Mon 04:45:12 AM 40.5660 7.9740 99° East 579 666 37,000 162 Climbing FlightAware ADS-B
Mon 04:45:51 AM 40.5430 8.1150 102° East 578 665 37,000  Level FlightAware ADS-B
Mon 04:46:29 AM 40.5210 8.2310 104° East 579 666 37,000  Level FlightAware ADS-B
Mon 04:47:07 AM 40.4960 8.3720 103° East 579 666 37,000  Level FlightAware ADS-B
Mon 04:47:37 AM 40.4780 8.4750 103° East 580 667 37,000  Level FlightAware ADS-B
Mon 04:48:12 AM 40.4580 8.5910 103° East 580 667 37,000  Level FlightAware ADS-B
Mon 04:48:47 AM 40.4370 8.7150 103° East 580 667 37,000  Level FlightAware ADS-B
Mon 04:49:21 AM 40.4160 8.8350 103° East 581 669 37,000  Level FlightAware ADS-B
Mon 04:49:57 AM 40.3940 8.9510 104° East 583 671 37,000  Level FlightAware ADS-B
Mon 04:50:32 AM 40.3730 9.0720 103° East 584 672 37,000  Level FlightAware ADS-B
Mon 04:51:12 AM 40.3480 9.2100 103° East 584 672 37,000  Level FlightAware ADS-B
Mon 04:51:47 AM 40.3260 9.3340 103° East 583 671 37,000  Level FlightAware ADS-B
Mon 04:52:17 AM 40.3080 9.4300 104° East 584 672 37,000  Level FlightAware ADS-B
Mon 04:52:52 AM 40.2870 9.5470 103° East 586 674 37,000  Level FlightAware ADS-B
Mon 04:53:32 AM 40.2600 9.6920 104° East 584 672 37,000  Level FlightAware ADS-B
Mon 04:54:07 AM 40.2370 9.8160 104° East 586 674 37,000  Level FlightAware ADS-B
Mon 04:54:37 AM 40.2180 9.9130 104° East 588 677 37,000  Level FlightAware ADS-B
Mon 04:55:16 AM 40.1910 10.0550 104° East 587 676 37,000  Level FlightAware ADS-B
Mon 04:55:47 AM 40.1740 10.1450 104° East 587 676 37,000  Level FlightAware ADS-B
Mon 04:56:25 AM 40.1460 10.2930 104° East 590 679 37,000  Level FlightAware ADS-B
Mon 04:57:02 AM 40.1210 10.4170 105° East 588 677 37,000  Level FlightAware ADS-B
Mon 04:57:33 AM 40.1000 10.5310 104° East 588 677 37,000  Level FlightAware ADS-B
Mon 04:58:09 AM 40.0760 10.6510 105° East 589 678 37,000  Level FlightAware ADS-B
Mon 04:58:45 AM 40.0510 10.7790 104° East 590 679 37,000  Level FlightAware ADS-B
Mon 04:59:23 AM 40.0250 10.9090 105° East 589 678 37,000  Level FlightAware ADS-B
Mon 04:59:54 AM 40.0050 11.0130 104° East 590 679 37,000  Level FlightAware ADS-B
Mon 05:00:31 AM 39.9810 11.1330 105° East 589 678 37,000  Level FlightAware ADS-B
Mon 05:01:06 AM 39.9550 11.2600 105° East 590 679 37,000  Level FlightAware ADS-B
Mon 05:01:43 AM 39.9290 11.3900 105° East 589 678 37,000  Level FlightAware ADS-B
Mon 05:02:17 AM 39.9060 11.5030 105° East 588 677 37,000  Level FlightAware ADS-B
Mon 05:02:52 AM 39.8820 11.6190 105° East 586 674 37,000  Level FlightAware ADS-B
Mon 05:03:31 AM 39.8540 11.7550 105° East 586 674 37,000  Level FlightAware ADS-B
Mon 05:04:09 AM 39.8270 11.8870 105° East 582 670 37,000  Level FlightAware ADS-B
Mon 05:04:42 AM 39.8050 11.9920 105° East 580 667 37,000  Level FlightAware ADS-B
Mon 05:05:16 AM 39.7810 12.1060 105° East 579 666 37,000  Level FlightAware ADS-B
Mon 05:05:52 AM 39.7550 12.2300 105° East 576 663 37,000  Level FlightAware ADS-B
Mon 05:06:30 AM 39.7290 12.3530 105° East 573 659 37,000  Level FlightAware ADS-B
Mon 05:07:04 AM 39.7050 12.4680 105° East 569 655 37,000  Level FlightAware ADS-B
Mon 05:07:54 AM 39.6690 12.6320 106° East 564 649 37,000  Level FlightAware ADS-B
Mon 05:08:26 AM 39.6470 12.7390 105° East 560 644 37,000  Level FlightAware ADS-B
Mon 05:09:02 AM 39.6220 12.8520 106° East 556 640 37,000  Level FlightAware ADS-B
Mon 05:09:38 AM 39.5960 12.9670 106° East 553 636 37,000  Level FlightAware ADS-B
Mon 05:10:14 AM 39.5720 13.0810 105° East 552 635 37,000  Level FlightAware ADS-B
Mon 05:10:46 AM 39.5490 13.1860 106° East 553 636 37,000  Level FlightAware ADS-B
Mon 05:11:22 AM 39.5230 13.3010 106° East 555 639 37,000  Level FlightAware ADS-B
Mon 05:11:54 AM 39.5010 13.4000 106° East 555 639 37,000  Level FlightAware ADS-B
Mon 05:12:34 AM 39.4720 13.5310 106° East 556 640 37,000  Level FlightAware ADS-B
Mon 05:13:06 AM 39.4490 13.6330 106° East 557 641 37,000  Level FlightAware ADS-B
Mon 05:13:42 AM 39.4230 13.7480 106° East 556 640 37,000  Level FlightAware ADS-B
Mon 05:14:18 AM 39.3980 13.8620 106° East 554 638 37,000  Level FlightAware ADS-B
Mon 05:14:51 AM 39.3800 13.9690 102° East 554 638 37,000  Level FlightAware ADS-B
Mon 05:15:26 AM 39.3630 14.0800 101° East 554 638 37,000  Level FlightAware ADS-B
Mon 05:15:58 AM 39.3470 14.1830 101° East 552 635 37,000  Level FlightAware ADS-B
Mon 05:16:36 AM 39.3270 14.3060 102° East 551 634 37,000  Level FlightAware ADS-B
Mon 05:17:12 AM 39.3100 14.4220 101° East 549 632 37,000  Level FlightAware ADS-B
Mon 05:17:46 AM 39.2940 14.5280 101° East 546 628 37,000  Level FlightAware ADS-B
Mon 05:18:22 AM 39.2760 14.6490 101° East 543 625 37,000  Level FlightAware ADS-B
Mon 05:18:58 AM 39.2580 14.7630 101° East 542 624 37,000  Level FlightAware ADS-B
Mon 05:19:34 AM 39.2410 14.8730 101° East 540 621 37,000  Level FlightAware ADS-B
Mon 05:20:04 AM 39.2250 14.9710 102° East 538 619 37,000  Level FlightAware ADS-B
Mon 05:20:42 AM 39.2070 15.0870 101° East 537 618 37,000  Level FlightAware ADS-B
Mon 05:21:16 AM 39.1890 15.1970 102° East 536 617 37,000  Level FlightAware ADS-B
Mon 05:21:52 AM 39.1720 15.3060 101° East 535 616 37,000  Level FlightAware ADS-B
Mon 05:22:26 AM 39.1550 15.4120 102° East 535 616 37,000  Level FlightAware ADS-B
Mon 05:23:02 AM 39.1360 15.5280 102° East 536 617 37,000  Level FlightAware ADS-B
Mon 05:23:34 AM 39.1210 15.6250 101° East 537 618 37,000  Level FlightAware ADS-B
Mon 05:24:13 AM 39.1020 15.7370 102° East 537 618 37,000  Level FlightAware ADS-B
Mon 05:24:44 AM 39.0850 15.8440 102° East 536 617 37,000  Level FlightAware ADS-B
Mon 05:25:22 AM 39.0650 15.9620 102° East 535 616 37,000  Level FlightAware ADS-B
Mon 05:25:58 AM 39.0470 16.0740 102° East 533 613 37,000  Level FlightAware ADS-B
Mon 05:26:30 AM 39.0300 16.1730 102° East 532 612 37,000  Level FlightAware ADS-B
Mon 05:27:06 AM 39.0110 16.2870 102° East 532 612 37,000  Level FlightAware ADS-B
Mon 05:27:43 AM 38.9930 16.3960 102° East 537 618 37,000  Level FlightAware ADS-B
Mon 05:28:18 AM 38.9730 16.5110 103° East 539 620 37,000  Level FlightAware ADS-B
Mon 05:28:51 AM 38.9560 16.6110 102° East 539 620 37,000  Level FlightAware ADS-B
Mon 05:29:27 AM 38.9360 16.7240 103° East 536 617 37,000  Level FlightAware ADS-B
Mon 05:30:03 AM 38.9170 16.8380 102° East 533 613 37,000  Level FlightAware ADS-B
Mon 05:30:35 AM 38.9000 16.9360 103° East 530 610 37,000  Level FlightAware ADS-B
Mon 05:31:09 AM 38.8810 17.0370 104° East 529 609 37,000  Level FlightAware ADS-B
Mon 05:31:49 AM 38.8600 17.1630 102° East 528 608 37,000  Level FlightAware ADS-B
Mon 05:32:21 AM 38.8420 17.2610 103° East 529 609 37,000  Level FlightAware ADS-B
Mon 05:32:57 AM 38.8230 17.3670 103° East 529 609 37,000  Level FlightAware ADS-B
Mon 05:33:33 AM 38.8030 17.4810 103° East 529 609 37,000  Level FlightAware ADS-B
Mon 05:34:05 AM 38.7850 17.5780 103° East 529 609 37,000  Level FlightAware ADS-B
Mon 05:34:41 AM 38.7650 17.6880 103° East 529 609 37,000  Level FlightAware ADS-B
Mon 05:35:17 AM 38.7450 17.7980 103° East 529 609 37,000  Level FlightAware ADS-B
Mon 05:35:49 AM 38.7280 17.8920 103° East 528 608 37,000  Level FlightAware ADS-B
Mon 05:36:27 AM 38.7070 18.0070 103° East 528 608 37,000  Level FlightAware ADS-B
Mon 05:37:03 AM 38.6860 18.1200 103° East 528 608 37,000  Level FlightAware ADS-B
Mon 05:37:35 AM 38.6680 18.2170 103° East 529 609 37,000  Level FlightAware ADS-B
Mon 05:38:11 AM 38.6480 18.3230 104° East 530 610 37,000  Level FlightAware ADS-B
Mon 05:38:46 AM 38.6270 18.4300 104° East 531 611 37,000  Level FlightAware ADS-B
Mon 05:39:21 AM 38.6070 18.5400 103° East 532 612 37,000  Level FlightAware ADS-B
Mon 05:39:57 AM 38.5860 18.6470 104° East 533 613 37,000  Level FlightAware ADS-B
Mon 05:40:33 AM 38.5650 18.7570 104° East 533 613 37,000  Level FlightAware ADS-B
Mon 05:41:05 AM 38.5460 18.8580 103° East 532 612 37,000  Level FlightAware ADS-B
Mon 05:41:38 AM 38.5320 18.9280 104° East 532 612 37,000  Level FlightAware ADS-B
Mon 05:42:15 AM 38.5020 19.0600 106° East 529 609 37,000  Level FlightAware ADS-B
Mon 05:42:50 AM 38.4730 19.1660 109° East 525 604 37,000  Level FlightAware ADS-B
Mon 05:43:24 AM 38.4430 19.2680 111° Southeast 527 606 37,000  Level FlightAware ADS-B
Mon 05:43:59 AM 38.4120 19.3710 111° Southeast 528 608 37,000  Level FlightAware ADS-B
Mon 05:44:39 AM 38.3790 19.4880 110° East 531 611 37,000  Level FlightAware ADS-B
Mon 05:45:10 AM 38.3530 19.5760 111° Southeast 530 610 37,000  Level FlightAware ADS-B
Mon 05:45:49 AM 38.3190 19.6940 110° East 527 606 37,000  Level FlightAware ADS-B
Mon 05:46:20 AM 38.2930 19.7810 111° Southeast 524 603 37,000  Level FlightAware ADS-B
Mon 05:46:54 AM 38.2630 19.8820 111° Southeast 522 601 37,000  Level FlightAware ADS-B
Mon 05:47:30 AM 38.2320 19.9830 111° Southeast 521 600 37,000  Level FlightAware ADS-B
Mon 05:48:09 AM 38.1970 20.0980 111° Southeast 522 601 37,000  Level FlightAware ADS-B
Mon 05:48:40 AM 38.1710 20.1840 111° Southeast 524 603 37,000  Level FlightAware ADS-B
Mon 05:49:15 AM 38.1400 20.2850 111° Southeast 526 605 37,000  Level FlightAware ADS-B
Mon 05:49:50 AM 38.1090 20.3870 111° Southeast 530 610 37,000  Level FlightAware ADS-B
Mon 05:50:25 AM 38.0780 20.4910 111° Southeast 530 610 37,000  Level FlightAware ADS-B
Mon 05:51:00 AM 38.0470 20.5900 112° Southeast 531 611 37,000  Level FlightAware ADS-B
Mon 05:51:35 AM 38.0150 20.6940 111° Southeast 530 610 37,000  Level FlightAware ADS-B
Mon 05:52:20 AM 37.9770 20.8160 112° Southeast 531 611 37,000  Level FlightAware ADS-B
Mon 05:52:50 AM 37.9480 20.9080 112° Southeast 531 611 37,000  Level FlightAware ADS-B
Mon 05:53:30 AM 37.9120 21.0240 111° Southeast 529 609 37,000  Level FlightAware ADS-B
Mon 05:54:00 AM 37.8880 21.0980 112° Southeast 529 609 37,000  Level FlightAware ADS-B
Mon 05:54:35 AM 37.8530 21.2100 112° Southeast 527 606 37,000  Level FlightAware ADS-B
Mon 05:55:13 AM 37.8190 21.3190 112° Southeast 526 605 37,000  Level FlightAware ADS-B
Mon 05:55:50 AM 37.7850 21.4270 112° Southeast 524 603 37,000  Level FlightAware ADS-B
Mon 05:56:25 AM 37.7530 21.5260 112° Southeast 524 603 37,000  Level FlightAware ADS-B
Mon 05:56:53 AM 37.7270 21.6060 112° Southeast 524 603 37,000  Level FlightAware ADS-B
Mon 05:57:32 AM 37.6950 21.7080 112° Southeast 524 603 37,000  Level FlightAware ADS-B
Mon 05:58:06 AM 37.6620 21.8100 112° Southeast 523 602 37,000  Level FlightAware ADS-B
Mon 05:58:41 AM 37.6300 21.9110 112° Southeast 520 598 37,000  Level FlightAware ADS-B
Mon 05:59:16 AM 37.5980 22.0090 112° Southeast 518 596 37,000  Level FlightAware ADS-B
Mon 05:59:55 AM 37.5620 22.1180 113° Southeast 517 595 37,000  Level FlightAware ADS-B
Mon 06:00:30 AM 37.5310 22.2130 112° Southeast 516 594 37,000  Level FlightAware ADS-B
Mon 06:01:02 AM 37.5010 22.3040 113° Southeast 516 594 37,000  Level FlightAware ADS-B
Mon 06:01:39 AM 37.4680 22.4070 112° Southeast 518 596 37,000  Level FlightAware ADS-B
Mon 06:02:15 AM 37.4340 22.5070 113° Southeast 520 598 37,000  Level FlightAware ADS-B
Mon 06:02:48 AM 37.4050 22.6000 111° Southeast 519 597 37,000  Level FlightAware ADS-B
Mon 06:03:25 AM 37.3690 22.7060 113° Southeast 522 601 37,000  Level FlightAware ADS-B
Mon 06:03:56 AM 37.3410 22.7920 112° Southeast 522 601 37,000  Level FlightAware ADS-B
Mon 06:04:34 AM 37.3060 22.8960 113° Southeast 522 601 37,000  Level FlightAware ADS-B
Mon 06:05:09 AM 37.2740 22.9910 113° Southeast 523 602 37,000  Level FlightAware ADS-B
Mon 06:05:46 AM 37.2370 23.1000 113° Southeast 522 601 37,000  Level FlightAware ADS-B
Mon 06:06:14 AM 37.2110 23.1750 114° Southeast 521 600 37,000  Level FlightAware ADS-B
Mon 06:06:52 AM 37.1760 23.2810 112° Southeast 521 600 37,000  Level FlightAware ADS-B
Mon 06:07:28 AM 37.1420 23.3810 113° Southeast 522 601 37,000  Level FlightAware ADS-B
Mon 06:08:05 AM 37.1060 23.4830 114° Southeast 522 601 37,000  Level FlightAware ADS-B
Mon 06:08:41 AM 37.0700 23.5850 114° Southeast 521 600 37,000  Level FlightAware ADS-B
Mon 06:09:14 AM 37.0390 23.6740 114° Southeast 521 600 37,000  Level FlightAware ADS-B
Mon 06:09:49 AM 37.0040 23.7730 114° Southeast 523 602 37,000  Level FlightAware ADS-B
Mon 06:10:25 AM 36.9700 23.8700 114° Southeast 523 602 37,000  Level FlightAware ADS-B
Mon 06:10:58 AM 36.9380 23.9610 114° Southeast 523 602 37,000  Level FlightAware ADS-B
Mon 06:11:35 AM 36.9020 24.0630 114° Southeast 522 601 37,000  Level FlightAware ADS-B
Mon 06:12:07 AM 36.8700 24.1540 114° Southeast 521 600 37,000  Level FlightAware ADS-B
Mon 06:12:43 AM 36.8350 24.2500 114° Southeast 521 600 37,000  Level FlightAware ADS-B
Mon 06:13:19 AM 36.8000 24.3490 114° Southeast 521 600 37,000  Level FlightAware ADS-B
Mon 06:13:57 AM 36.7620 24.4560 114° Southeast 522 601 37,000  Level FlightAware ADS-B
Mon 06:14:29 AM 36.7320 24.5390 114° Southeast 522 601 37,000  Level FlightAware ADS-B
Mon 06:15:03 AM 36.6970 24.6350 114° Southeast 521 600 37,000  Level FlightAware ADS-B
Mon 06:15:41 AM 36.6600 24.7360 115° Southeast 523 602 37,000  Level FlightAware ADS-B
Mon 06:16:15 AM 36.6260 24.8320 114° Southeast 523 602 37,000  Level FlightAware ADS-B
Mon 06:16:51 AM 36.5890 24.9310 115° Southeast 524 603 37,000  Level FlightAware ADS-B
Mon 06:17:27 AM 36.5550 25.0270 114° Southeast 523 602 37,000  Level FlightAware ADS-B
Mon 06:17:59 AM 36.5220 25.1140 115° Southeast 522 601 37,000  Level FlightAware ADS-B
Mon 06:18:34 AM 36.4860 25.2120 115° Southeast 523 602 37,000  Level FlightAware ADS-B
Mon 06:19:10 AM 36.4530 25.3020 114° Southeast 522 601 37,000  Level FlightAware ADS-B
Mon 06:19:43 AM 36.4160 25.4030 114° Southeast 523 602 37,000  Level FlightAware ADS-B
Mon 06:20:19 AM 36.3800 25.4980 115° Southeast 523 602 37,000  Level FlightAware ADS-B
Mon 06:20:55 AM 36.3430 25.5960 115° Southeast 524 603 37,000  Level FlightAware ADS-B
Mon 06:21:31 AM 36.3070 25.6950 114° Southeast 525 604 37,000  Level FlightAware ADS-B
Mon 06:22:03 AM 36.2740 25.7820 115° Southeast 524 603 37,000  Level FlightAware ADS-B
Mon 06:22:39 AM 36.2370 25.8830 114° Southeast 523 602 37,000  Level FlightAware ADS-B
Mon 06:23:17 AM 36.1980 25.9860 115° Southeast 522 601 37,000  Level FlightAware ADS-B
Mon 06:23:49 AM 36.1650 26.0720 115° Southeast 522 601 37,000  Level FlightAware ADS-B
Mon 06:24:25 AM 36.1290 26.1670 115° Southeast 523 602 37,000  Level FlightAware ADS-B
Mon 06:25:01 AM 36.0910 26.2650 116° Southeast 524 603 37,000  Level FlightAware ADS-B
Mon 06:25:33 AM 36.0580 26.3520 115° Southeast 525 604 37,000  Level FlightAware ADS-B
Mon 06:26:09 AM 36.0210 26.4490 115° Southeast 525 604 37,000  Level FlightAware ADS-B
Mon 06:26:43 AM 35.9850 26.5440 115° Southeast 526 605 37,000  Level FlightAware ADS-B
Mon 06:27:19 AM 35.9480 26.6390 116° Southeast 526 605 37,000  Level FlightAware ADS-B
Mon 06:27:57 AM 35.9080 26.7450 115° Southeast 527 606 37,000  Level FlightAware ADS-B
Mon 06:28:38 AM 35.8700 26.8440 115° Southeast 527 606 37,000  Level FlightAware ADS-B
Mon 06:29:14 AM 35.8280 26.9510 116° Southeast 527 606 37,000  Level FlightAware ADS-B
Mon 06:29:47 AM 35.8000 27.0220 116° Southeast 527 606 37,000  Level FlightAware ADS-B
Mon 06:30:22 AM 35.7550 27.1380 116° Southeast 527 606 37,000  Level FlightAware ADS-B
Mon 06:30:58 AM 35.7170 27.2320 116° Southeast 526 605 37,000  Level FlightAware ADS-B
Mon 06:31:30 AM 35.6830 27.3210 115° Southeast 526 605 37,000  Level FlightAware ADS-B
Mon 06:32:06 AM 35.6440 27.4180 116° Southeast 525 604 37,000  Level FlightAware ADS-B
Mon 06:32:42 AM 35.6060 27.5150 116° Southeast 525 604 37,000  Level FlightAware ADS-B
Mon 06:33:14 AM 35.5730 27.5980 116° Southeast 525 604 37,000  Level FlightAware ADS-B
Mon 06:33:50 AM 35.5340 27.6940 117° Southeast 525 604 37,000  Level FlightAware ADS-B
Mon 06:34:28 AM 35.4930 27.7960 116° Southeast 526 605 37,000  Level FlightAware ADS-B
Mon 06:35:00 AM 35.4600 27.8810 115° Southeast 525 604 37,000  Level FlightAware ADS-B
Mon 06:35:36 AM 35.4210 27.9780 116° Southeast 525 604 37,000  Level FlightAware ADS-B
Mon 06:36:13 AM 35.3820 28.0770 116° Southeast 525 604 37,000  Level FlightAware ADS-B
Mon 06:36:48 AM 35.3440 28.1700 117° Southeast 526 605 37,000  Level FlightAware ADS-B
Mon 06:37:38 AM 35.2950 28.2900 117° Southeast 525 604 37,000  Level FlightAware ADS-B
Mon 06:38:12 AM 35.2520 28.3970 116° Southeast 526 605 37,000  Level FlightAware ADS-B
Mon 06:38:42 AM 35.2200 28.4740 117° Southeast 526 605 37,000  Level FlightAware ADS-B
Mon 06:39:20 AM 35.1790 28.5750 116° Southeast 527 606 37,000  Level FlightAware ADS-B
Mon 06:40:02 AM 35.1380 28.6770 116° Southeast 526 605 37,000  Level FlightAware ADS-B
Mon 06:40:52 AM 35.0780 28.8190 117° Southeast 526 605 37,000  Level FlightAware ADS-B
Mon 06:41:37 AM 35.0340 28.9280 116° Southeast 523 602 37,000  Level FlightAware ADS-B
Mon 06:42:16 AM 34.9860 29.0420 117° Southeast 525 604 37,000  Level FlightAware ADS-B
Mon 06:42:50 AM 34.9490 29.1320 117° Southeast 525 604 37,000  Level FlightAware ADS-B
Mon 06:43:24 AM 34.9120 29.2210 117° Southeast 524 603 37,000  Level FlightAware ADS-B
Mon 06:43:58 AM 34.8740 29.3110 117° Southeast 524 603 37,000  Level FlightAware ADS-B
Mon 06:44:35 AM 34.8380 29.3970 117° Southeast 519 597 37,000  Level FlightAware ADS-B
Mon 06:45:11 AM 34.7940 29.5020 117° Southeast 519 597 37,000  Level FlightAware ADS-B
Mon 06:45:46 AM 34.7550 29.5960 117° Southeast 519 597 37,000  Level FlightAware ADS-B
Mon 06:46:20 AM 34.7170 29.6850 117° Southeast 523 602 37,000  Level FlightAware ADS-B
Mon 06:46:51 AM 34.6840 29.7610 118° Southeast 523 602 37,000  Level FlightAware ADS-B
Mon 06:47:31 AM 34.6390 29.8680 117° Southeast 524 603 37,000  Level FlightAware ADS-B
Mon 06:48:01 AM 34.6060 29.9440 118° Southeast 523 602 37,000  Level FlightAware ADS-B
Mon 06:48:41 AM 34.5660 30.0310 119° Southeast 523 602 37,000  Level FlightAware ADS-B
Mon 06:49:12 AM 34.5190 30.1230 122° Southeast 520 598 37,000  Level FlightAware ADS-B
Mon 06:50:08 AM 34.4500 30.2660 120° Southeast 522 601 37,000  Level FlightAware ADS-B
Mon 06:50:47 AM 34.4010 30.3680 120° Southeast 524 603 37,000  Level FlightAware ADS-B
Mon 06:51:18 AM 34.3640 30.4480 119° Southeast 524 603 37,000  Level FlightAware ADS-B
Mon 06:51:59 AM 34.3120 30.5550 120° Southeast 526 605 37,000  Level FlightAware ADS-B
Mon 06:52:30 AM 34.2750 30.6320 120° Southeast 527 606 37,000  Level FlightAware ADS-B
Mon 06:53:05 AM 34.2310 30.7240 120° Southeast 527 606 37,000  Level FlightAware ADS-B
Mon 06:53:42 AM 34.1870 30.8140 121° Southeast 528 608 37,000  Level FlightAware ADS-B
Mon 06:54:22 AM 34.1380 30.9140 121° Southeast 530 610 37,000  Level FlightAware ADS-B
Mon 06:54:56 AM 34.0940 31.0070 120° Southeast 536 617 37,000  Level FlightAware ADS-B
Mon 06:55:32 AM 34.0490 31.0980 121° Southeast 538 619 37,000  Level FlightAware ADS-B
Mon 06:56:07 AM 34.0030 31.1910 121° Southeast 539 620 37,000  Level FlightAware ADS-B
Mon 06:56:46 AM 33.9540 31.2910 121° Southeast 539 620 37,000  Level FlightAware ADS-B
Mon 06:57:17 AM 33.9150 31.3720 120° Southeast 540 621 37,000  Level FlightAware ADS-B
Mon 06:57:52 AM 33.8690 31.4620 122° Southeast 541 623 37,000  Level FlightAware ADS-B
Mon 06:58:27 AM 33.8260 31.5500 120° Southeast 541 623 37,000 -600 Level FlightAware ADS-B
Mon 06:59:02 AM 33.7800 31.6430 121° Southeast 540 621 36,300 -1,183 Descending FlightAware ADS-B
Mon 06:59:38 AM 33.7350 31.7330 121° Southeast 539 620 35,600 -1,014 Descending FlightAware ADS-B
Mon 07:00:13 AM 33.6900 31.8230 121° Southeast 534 615 35,100 -514 Descending FlightAware ADS-B
Mon 07:00:48 AM 33.6470 31.9090 121° Southeast 527 606 35,000 -86 Descending FlightAware ADS-B
Mon 07:01:23 AM 33.6020 31.9990 121° Southeast 527 606 35,000  Level FlightAware ADS-B
Mon 07:01:58 AM 33.5580 32.0860 121° Southeast 528 608 35,000  Level FlightAware ADS-B
Mon 07:02:35 AM 33.5140 32.1740 121° Southeast 530 610 35,000  Level FlightAware ADS-B
Mon 07:03:08 AM 33.4700 32.2630 121° Southeast 532 612 35,000  Level FlightAware ADS-B
Mon 07:03:43 AM 33.4260 32.3480 122° Southeast 533 613 35,000  Level FlightAware ADS-B
Mon 07:04:18 AM 33.3840 32.4320 121° Southeast 535 616 35,000 -257 Level FlightAware ADS-B
Mon 07:04:53 AM 33.3350 32.5280 121° Southeast 534 615 34,700 -930 Descending FlightAware ADS-B
Mon 07:05:29 AM 33.2890 32.6190 121° Southeast 533 613 33,900 -1,385 Descending FlightAware ADS-B
Mon 07:05:58 AM 33.2500 32.6940 122° Southeast 530 610 33,200 -1,800 Descending FlightAware ADS-B
Mon 07:06:39 AM 33.1990 32.7940 121° Southeast 528 608 31,800 -2,292 Descending FlightAware ADS-B
Mon 07:07:27 AM 33.1370 32.9130 122° Southeast 532 612 29,800 -2,283 Descending FlightAware ADS-B
Mon 07:08:11 AM 33.0860 33.0130 121° Southeast 531 611 28,300 -2,462 Descending FlightAware ADS-B
Mon 07:08:45 AM 33.0350 33.1140 121° Southeast 533 613 26,600 -2,338 Descending FlightAware ADS-B
Mon 07:09:28 AM 32.9820 33.2150 122° Southeast 518 596 25,300 -2,053 Descending FlightAware ADS-B
Mon 07:10:01 AM 32.9400 33.2960 122° Southeast 505 581 24,000 -2,418 Descending FlightAware ADS-B
Mon 07:10:35 AM 32.8980 33.3750 122° Southeast 493 567 22,600 -2,417 Descending FlightAware ADS-B
Mon 07:11:13 AM 32.8540 33.4590 122° Southeast 479 551 21,100 -2,382 Descending FlightAware ADS-B
Mon 07:11:43 AM 32.8180 33.5280 122° Southeast 471 542 19,900 -2,400 Descending FlightAware ADS-B
Mon 07:12:43 AM 32.7510 33.6570 122° Southeast 450 518 17,500 -2,413 Descending FlightAware ADS-B
Mon 07:13:15 AM 32.7160 33.7230 122° Southeast 439 505 16,200 -2,366 Descending FlightAware ADS-B
Mon 07:13:54 AM 32.6760 33.7990 122° Southeast 426 490 14,700 -2,400 Descending FlightAware ADS-B
Mon 07:14:30 AM 32.6380 33.8720 122° Southeast 419 482 13,200 -2,087 Descending FlightAware ADS-B
Mon 07:15:03 AM 32.6040 33.9370 122° Southeast 399 459 12,300 -1,429 Descending FlightAware ADS-B
Mon 07:15:33 AM 32.5750 33.9910 122° Southeast 381 438 11,700 -1,167 Descending FlightAware ADS-B
Mon 07:16:15 AM 32.5370 34.0630 122° Southeast 358 412 10,900 -1,040 Descending FlightAware ADS-B
Mon 07:16:48 AM 32.5130 34.1070 123° Southeast 345 397 10,400 -947 Descending FlightAware ADS-B
Mon 07:17:12 AM 32.4880 34.1520 123° Southeast 331 381 10,000 -941 Descending FlightAware ADS-B
Mon 07:17:39 AM 32.4600 34.1890 132° Southeast 318 366 9,600 -894 Descending FlightAware ADS-B
Mon 07:17:59 AM 32.4400 34.2140 133° Southeast 310 357 9,300 -833 Descending FlightAware ADS-B
Mon 07:18:15 AM 32.4250 34.2320 135° Southeast 305 351 9,100 -333 Descending FlightAware ADS-B
Mon 07:18:53 AM 32.3920 34.2700 136° Southeast 301 346 9,000 -737 Descending FlightAware ADS-B
Mon 07:19:12 AM 32.3710 34.2940 136° Southeast 283 326 8,400 -1,421 Descending FlightAware ADS-B
Mon 07:19:31 AM 32.3520 34.3170 134° Southeast 280 322 8,100 -1,021 Descending FlightAware ADS-B
Mon 07:19:59 AM 32.3270 34.3460 136° Southeast 280 322 7,600 -1,125 Descending FlightAware ADS-B
Mon 07:20:19 AM 32.3080 34.3690 134° Southeast 278 320 7,200 -511 Descending FlightAware ADS-B
Mon 07:20:46 AM 32.2880 34.3930 135° Southeast 278 320 7,200 -368 Level FlightAware ADS-B
Mon 07:22:01 AM 32.2220 34.4750 134° Southeast 5,600 -400 Descending FlightAware ADS-B
Mon 07:24:00 AM 32.0588 34.7613 115° Southeast  Level FlightAware Approximate
Mon 07:25:00 AM 32.0000 34.8667 125° Southeast  Level FlightAware Approximate
Mon 07:25:38 AM 32.0810 34.7390 125° Southeast 5,100  Level FlightAware ADS-B
Mon 07:26:01 AM 32.0700 34.7600 122° Southeast 224 258 5,100  Level FlightAware ADS-B
Mon 07:26:23 AM 32.0580 34.7770 130° Southeast 218 251 5,100 -600 Level FlightAware ADS-B
Mon 07:26:41 AM 32.0410 34.7970 135° Southeast 211 243 4,700 -789 Descending FlightAware ADS-B
Mon 07:27:01 AM 32.0270 34.8140 134° Southeast 205 236 4,600 -130 Descending FlightAware ADS-B
Mon 07:27:27 AM 32.0120 34.8310 136° Southeast 205 236 4,600 -340 Level FlightAware ADS-B
Mon 07:27:54 AM 31.9920 34.8520 138° Southeast 197 227 4,300 -964 Descending FlightAware ADS-B
Mon 07:28:23 AM 31.9770 34.8700 134° Southeast 197 227 3,700 -1,500 Descending FlightAware ADS-B
Mon 07:28:30 AM 31.9740 34.8780 114° Southeast 195 224 3,400 -1,846 Descending FlightAware ADS-B
Mon 07:28:36 AM 31.9720 34.8860 106° East 194 223 3,300 -1,000 Descending FlightAware ADS-B
Mon 07:29:00 AM 31.9760 34.9100 79° East 190 219 2,900 -563 Descending FlightAware ADS-B
Mon 07:29:40 AM 31.9840 34.9460 75° East 188 216 2,700 -1,040 Descending FlightAware ADS-B
Mon 07:30:15 AM 32.0090 34.9640 31° Northeast 185 213 1,600 -1,100 Descending FlightAware ADS-B
Mon 07:30:40 AM 32.0140 34.9850 74° East 185 213 1,600  Level FlightAware ADS-B
Mon 07:33:00 AM 32.0095 34.8769 267° West  Level Estimated

Login

Don't have an account? Register now (free) for customized features, flight alerts, and more!